sensor_id;sensor_type;location;lat;lon;timestamp;pressure;altitude;pressure_sealevel;temperature;humidity
35848;BME280;22332;51.954;20.118;2023-01-26T00:00:57;101026.09;;;2.68;80.00
35848;BME280;22332;51.954;20.118;2023-01-26T00:04:03;101024.59;;;2.72;80.02
35848;BME280;22332;51.954;20.118;2023-01-26T00:07:08;101020.85;;;2.74;79.97
35848;BME280;22332;51.954;20.118;2023-01-26T00:10:14;101019.48;;;2.73;79.88
35848;BME280;22332;51.954;20.118;2023-01-26T00:13:20;101014.85;;;2.71;79.87
35848;BME280;22332;51.954;20.118;2023-01-26T00:16:27;101009.25;;;2.61;79.81
35848;BME280;22332;51.954;20.118;2023-01-26T00:19:32;101008.12;;;2.56;79.85
35848;BME280;22332;51.954;20.118;2023-01-26T00:22:38;101006.23;;;2.55;79.94
35848;BME280;22332;51.954;20.118;2023-01-26T00:25:43;101003.80;;;2.54;79.96
35848;BME280;22332;51.954;20.118;2023-01-26T00:28:49;101000.51;;;2.53;79.85
35848;BME280;22332;51.954;20.118;2023-01-26T00:31:56;100998.96;;;2.53;80.01
35848;BME280;22332;51.954;20.118;2023-01-26T00:35:02;100997.89;;;2.53;80.04
35848;BME280;22332;51.954;20.118;2023-01-26T00:38:07;100997.08;;;2.55;80.18
35848;BME280;22332;51.954;20.118;2023-01-26T00:41:14;101003.07;;;2.58;80.09
35848;BME280;22332;51.954;20.118;2023-01-26T00:44:34;100999.92;;;2.64;80.18
35848;BME280;22332;51.954;20.118;2023-01-26T00:47:40;100999.97;;;2.70;80.26
35848;BME280;22332;51.954;20.118;2023-01-26T00:50:45;100997.69;;;2.73;80.20
35848;BME280;22332;51.954;20.118;2023-01-26T00:53:51;100996.64;;;2.73;79.89
35848;BME280;22332;51.954;20.118;2023-01-26T00:56:56;100997.34;;;2.73;79.95
35848;BME280;22332;51.954;20.118;2023-01-26T01:00:02;100997.38;;;2.72;79.72
35848;BME280;22332;51.954;20.118;2023-01-26T01:03:09;100997.02;;;2.69;79.88
35848;BME280;22332;51.954;20.118;2023-01-26T01:06:15;100994.55;;;2.63;79.85
35848;BME280;22332;51.954;20.118;2023-01-26T01:09:21;100990.21;;;2.62;80.01
35848;BME280;22332;51.954;20.118;2023-01-26T01:12:27;100985.83;;;2.62;80.11
35848;BME280;22332;51.954;20.118;2023-01-26T01:15:32;100989.45;;;2.60;79.92
35848;BME280;22332;51.954;20.118;2023-01-26T01:18:38;100986.23;;;2.61;80.10
35848;BME280;22332;51.954;20.118;2023-01-26T01:21:44;100984.41;;;2.62;80.06
35848;BME280;22332;51.954;20.118;2023-01-26T01:24:51;100980.89;;;2.66;80.27
35848;BME280;22332;51.954;20.118;2023-01-26T01:27:56;100977.95;;;2.71;80.05
35848;BME280;22332;51.954;20.118;2023-01-26T01:31:04;100975.52;;;2.77;79.88
35848;BME280;22332;51.954;20.118;2023-01-26T01:34:10;100969.77;;;2.79;79.69
35848;BME280;22332;51.954;20.118;2023-01-26T01:37:16;100960.98;;;2.80;79.80
35848;BME280;22332;51.954;20.118;2023-01-26T01:40:21;100957.91;;;2.78;79.89
35848;BME280;22332;51.954;20.118;2023-01-26T01:43:28;100955.46;;;2.71;79.85
35848;BME280;22332;51.954;20.118;2023-01-26T01:46:35;100954.55;;;2.68;79.92
35848;BME280;22332;51.954;20.118;2023-01-26T01:49:44;100947.96;;;2.64;80.01
35848;BME280;22332;51.954;20.118;2023-01-26T01:52:51;100941.27;;;2.61;80.07
35848;BME280;22332;51.954;20.118;2023-01-26T01:56:01;100936.66;;;2.59;80.06
35848;BME280;22332;51.954;20.118;2023-01-26T01:59:09;100937.55;;;2.55;80.24
35848;BME280;22332;51.954;20.118;2023-01-26T02:02:16;100932.50;;;2.54;80.06
35848;BME280;22332;51.954;20.118;2023-01-26T02:05:26;100932.88;;;2.54;80.10
35848;BME280;22332;51.954;20.118;2023-01-26T02:08:38;100923.84;;;2.55;80.01
35848;BME280;22332;51.954;20.118;2023-01-26T02:11:45;100918.63;;;2.61;79.89
35848;BME280;22332;51.954;20.118;2023-01-26T02:14:54;100916.11;;;2.65;80.16
35848;BME280;22332;51.954;20.118;2023-01-26T02:18:03;100921.08;;;2.67;80.06
35848;BME280;22332;51.954;20.118;2023-01-26T02:21:10;100912.55;;;2.66;80.10
35848;BME280;22332;51.954;20.118;2023-01-26T02:24:24;100904.33;;;2.65;79.86
35848;BME280;22332;51.954;20.118;2023-01-26T02:27:30;100904.20;;;2.64;79.98
35848;BME280;22332;51.954;20.118;2023-01-26T02:30:37;100899.28;;;2.64;79.96
35848;BME280;22332;51.954;20.118;2023-01-26T02:33:43;100896.06;;;2.62;80.02
35848;BME280;22332;51.954;20.118;2023-01-26T02:36:58;100890.73;;;2.60;79.93
35848;BME280;22332;51.954;20.118;2023-01-26T02:40:08;100885.02;;;2.56;79.99
35848;BME280;22332;51.954;20.118;2023-01-26T02:43:18;100879.73;;;2.52;79.99
35848;BME280;22332;51.954;20.118;2023-01-26T02:46:24;100880.43;;;2.52;80.11
35848;BME280;22332;51.954;20.118;2023-01-26T02:49:29;100882.52;;;2.59;80.09
35848;BME280;22332;51.954;20.118;2023-01-26T02:52:56;100873.86;;;2.63;79.87
35848;BME280;22332;51.954;20.118;2023-01-26T02:56:01;100869.81;;;2.67;79.97
35848;BME280;22332;51.954;20.118;2023-01-26T02:59:07;100871.11;;;2.68;79.99
35848;BME280;22332;51.954;20.118;2023-01-26T03:02:13;100867.98;;;2.68;80.11
35848;BME280;22332;51.954;20.118;2023-01-26T03:05:19;100866.75;;;2.68;79.86
35848;BME280;22332;51.954;20.118;2023-01-26T03:08:24;100857.81;;;2.65;79.94
35848;BME280;22332;51.954;20.118;2023-01-26T03:11:30;100851.23;;;2.60;79.98
35848;BME280;22332;51.954;20.118;2023-01-26T03:14:45;100845.21;;;2.58;80.15
35848;BME280;22332;51.954;20.118;2023-01-26T03:18:12;100843.23;;;2.55;79.96
35848;BME280;22332;51.954;20.118;2023-01-26T03:21:36;100840.23;;;2.49;80.01
35848;BME280;22332;51.954;20.118;2023-01-26T03:24:59;100842.98;;;2.47;80.13
35848;BME280;22332;51.954;20.118;2023-01-26T03:28:23;100840.14;;;2.51;80.19
35848;BME280;22332;51.954;20.118;2023-01-26T03:31:30;100837.05;;;2.56;80.18
35848;BME280;22332;51.954;20.118;2023-01-26T03:34:35;100834.36;;;2.60;79.96
35848;BME280;22332;51.954;20.118;2023-01-26T03:37:42;100825.79;;;2.63;79.95
35848;BME280;22332;51.954;20.118;2023-01-26T03:40:52;100827.11;;;2.61;79.96
35848;BME280;22332;51.954;20.118;2023-01-26T03:44:18;100822.79;;;2.63;80.03
35848;BME280;22332;51.954;20.118;2023-01-26T03:47:42;100813.80;;;2.60;80.04
35848;BME280;22332;51.954;20.118;2023-01-26T03:51:07;100808.29;;;2.59;80.04
35848;BME280;22332;51.954;20.118;2023-01-26T03:54:30;100799.41;;;2.57;80.18
35848;BME280;22332;51.954;20.118;2023-01-26T03:57:55;100797.27;;;2.54;79.99
35848;BME280;22332;51.954;20.118;2023-01-26T04:01:00;100796.64;;;2.53;80.07
35848;BME280;22332;51.954;20.118;2023-01-26T04:04:07;100797.23;;;2.49;80.25
35848;BME280;22332;51.954;20.118;2023-01-26T04:07:33;100794.42;;;2.43;80.28
35848;BME280;22332;51.954;20.118;2023-01-26T04:10:56;100794.15;;;2.44;80.17
35848;BME280;22332;51.954;20.118;2023-01-26T04:14:03;100796.48;;;2.50;80.26
35848;BME280;22332;51.954;20.118;2023-01-26T04:17:26;100794.89;;;2.56;80.13
35848;BME280;22332;51.954;20.118;2023-01-26T04:20:50;100799.50;;;2.59;79.96
35848;BME280;22332;51.954;20.118;2023-01-26T04:24:15;100796.05;;;2.57;80.13
35848;BME280;22332;51.954;20.118;2023-01-26T04:27:21;100790.03;;;2.55;79.94
35848;BME280;22332;51.954;20.118;2023-01-26T04:30:26;100790.98;;;2.54;80.20
35848;BME280;22332;51.954;20.118;2023-01-26T04:33:32;100789.38;;;2.51;80.12
35848;BME280;22332;51.954;20.118;2023-01-26T04:36:38;100790.48;;;2.50;80.20
35848;BME280;22332;51.954;20.118;2023-01-26T04:39:44;100786.52;;;2.49;80.24
35848;BME280;22332;51.954;20.118;2023-01-26T04:42:50;100786.98;;;2.47;80.22
35848;BME280;22332;51.954;20.118;2023-01-26T04:46:00;100792.39;;;2.45;80.26
35848;BME280;22332;51.954;20.118;2023-01-26T04:49:07;100789.01;;;2.45;80.20
35848;BME280;22332;51.954;20.118;2023-01-26T04:52:13;100790.73;;;2.49;80.32
35848;BME280;22332;51.954;20.118;2023-01-26T04:55:19;100792.38;;;2.53;80.16
35848;BME280;22332;51.954;20.118;2023-01-26T04:58:25;100794.27;;;2.58;80.12
35848;BME280;22332;51.954;20.118;2023-01-26T05:01:31;100797.15;;;2.60;80.11
35848;BME280;22332;51.954;20.118;2023-01-26T05:04:38;100793.73;;;2.61;80.12
35848;BME280;22332;51.954;20.118;2023-01-26T05:07:44;100786.89;;;2.61;80.14
35848;BME280;22332;51.954;20.118;2023-01-26T05:10:54;100784.58;;;2.58;80.15
35848;BME280;22332;51.954;20.118;2023-01-26T05:14:03;100782.30;;;2.58;80.13
35848;BME280;22332;51.954;20.118;2023-01-26T05:17:26;100780.64;;;2.57;80.15
35848;BME280;22332;51.954;20.118;2023-01-26T05:20:40;100783.84;;;2.56;80.33
35848;BME280;22332;51.954;20.118;2023-01-26T05:23:59;100780.23;;;2.54;80.35
35848;BME280;22332;51.954;20.118;2023-01-26T05:27:15;100780.50;;;2.53;80.20
35848;BME280;22332;51.954;20.118;2023-01-26T05:30:30;100778.02;;;2.50;80.07
35848;BME280;22332;51.954;20.118;2023-01-26T05:33:37;100777.56;;;2.49;80.32
35848;BME280;22332;51.954;20.118;2023-01-26T05:36:43;100767.84;;;2.53;80.34
35848;BME280;22332;51.954;20.118;2023-01-26T05:39:49;100763.64;;;2.59;80.45
35848;BME280;22332;51.954;20.118;2023-01-26T05:42:55;100766.34;;;2.64;80.44
35848;BME280;22332;51.954;20.118;2023-01-26T05:46:26;100765.29;;;2.66;80.23
35848;BME280;22332;51.954;20.118;2023-01-26T05:49:32;100767.86;;;2.68;80.10
35848;BME280;22332;51.954;20.118;2023-01-26T05:52:38;100762.83;;;2.64;80.08
35848;BME280;22332;51.954;20.118;2023-01-26T05:55:44;100759.56;;;2.60;80.18
35848;BME280;22332;51.954;20.118;2023-01-26T05:58:50;100759.32;;;2.58;80.21
35848;BME280;22332;51.954;20.118;2023-01-26T06:01:57;100762.41;;;2.56;80.43
35848;BME280;22332;51.954;20.118;2023-01-26T06:05:04;100765.01;;;2.53;80.31
35848;BME280;22332;51.954;20.118;2023-01-26T06:08:10;100762.65;;;2.52;80.13
35848;BME280;22332;51.954;20.118;2023-01-26T06:11:31;100756.23;;;2.48;80.26
35848;BME280;22332;51.954;20.118;2023-01-26T06:14:52;100755.83;;;2.45;80.43
35848;BME280;22332;51.954;20.118;2023-01-26T06:18:00;100763.86;;;2.46;80.40
35848;BME280;22332;51.954;20.118;2023-01-26T06:21:06;100767.50;;;2.50;80.42
35848;BME280;22332;51.954;20.118;2023-01-26T06:24:12;100765.67;;;2.57;80.41
35848;BME280;22332;51.954;20.118;2023-01-26T06:27:18;100762.50;;;2.63;80.41
35848;BME280;22332;51.954;20.118;2023-01-26T06:30:26;100761.15;;;2.65;80.36
35848;BME280;22332;51.954;20.118;2023-01-26T06:33:37;100764.59;;;2.67;80.25
35848;BME280;22332;51.954;20.118;2023-01-26T06:36:44;100759.29;;;2.67;80.21
35848;BME280;22332;51.954;20.118;2023-01-26T06:39:57;100747.80;;;2.62;80.23
35848;BME280;22332;51.954;20.118;2023-01-26T06:43:02;100751.23;;;2.61;80.16
35848;BME280;22332;51.954;20.118;2023-01-26T06:46:10;100749.55;;;2.59;80.31
35848;BME280;22332;51.954;20.118;2023-01-26T06:49:16;100750.27;;;2.59;80.42
35848;BME280;22332;51.954;20.118;2023-01-26T06:52:29;100751.00;;;2.56;80.02
35848;BME280;22332;51.954;20.118;2023-01-26T06:55:40;100751.64;;;2.54;80.34
35848;BME280;22332;51.954;20.118;2023-01-26T06:59:11;100756.58;;;2.57;80.25
35848;BME280;22332;51.954;20.118;2023-01-26T07:02:30;100756.35;;;2.61;80.33
35848;BME280;22332;51.954;20.118;2023-01-26T07:05:36;100752.84;;;2.66;80.28
35848;BME280;22332;51.954;20.118;2023-01-26T07:08:42;100756.70;;;2.69;80.32
35848;BME280;22332;51.954;20.118;2023-01-26T07:11:47;100758.11;;;2.72;80.32
35848;BME280;22332;51.954;20.118;2023-01-26T07:14:53;100752.27;;;2.73;80.21
35848;BME280;22332;51.954;20.118;2023-01-26T07:17:59;100753.55;;;2.75;80.26
35848;BME280;22332;51.954;20.118;2023-01-26T07:21:06;100748.08;;;2.76;80.24
35848;BME280;22332;51.954;20.118;2023-01-26T07:24:12;100749.79;;;2.77;80.22
35848;BME280;22332;51.954;20.118;2023-01-26T07:27:18;100753.15;;;2.73;80.06
35848;BME280;22332;51.954;20.118;2023-01-26T07:30:23;100749.85;;;2.72;80.06
35848;BME280;22332;51.954;20.118;2023-01-26T07:33:30;100746.98;;;2.73;80.06
35848;BME280;22332;51.954;20.118;2023-01-26T07:36:36;100741.81;;;2.75;80.20
35848;BME280;22332;51.954;20.118;2023-01-26T07:39:41;100737.71;;;2.79;80.25
35848;BME280;22332;51.954;20.118;2023-01-26T07:42:47;100734.64;;;2.86;80.20
35848;BME280;22332;51.954;20.118;2023-01-26T07:46:18;100735.38;;;2.94;80.01
35848;BME280;22332;51.954;20.118;2023-01-26T07:49:23;100731.06;;;2.99;79.82
35848;BME280;22332;51.954;20.118;2023-01-26T07:52:29;100730.59;;;3.04;79.93
35848;BME280;22332;51.954;20.118;2023-01-26T07:55:35;100730.35;;;3.08;79.72
35848;BME280;22332;51.954;20.118;2023-01-26T07:58:41;100732.66;;;3.10;79.76
35848;BME280;22332;51.954;20.118;2023-01-26T08:01:48;100730.04;;;3.13;79.89
35848;BME280;22332;51.954;20.118;2023-01-26T08:04:54;100728.05;;;3.13;79.60
35848;BME280;22332;51.954;20.118;2023-01-26T08:08:00;100725.44;;;3.10;79.73
35848;BME280;22332;51.954;20.118;2023-01-26T08:11:06;100731.13;;;3.06;79.69
35848;BME280;22332;51.954;20.118;2023-01-26T08:14:12;100728.26;;;3.05;79.70
35848;BME280;22332;51.954;20.118;2023-01-26T08:17:17;100735.55;;;3.03;79.75
35848;BME280;22332;51.954;20.118;2023-01-26T08:20:23;100734.91;;;3.05;79.67
35848;BME280;22332;51.954;20.118;2023-01-26T08:23:29;100734.14;;;3.09;79.67
35848;BME280;22332;51.954;20.118;2023-01-26T08:26:34;100734.88;;;3.17;79.65
35848;BME280;22332;51.954;20.118;2023-01-26T08:29:40;100731.88;;;3.23;79.50
35848;BME280;22332;51.954;20.118;2023-01-26T08:32:45;100734.84;;;3.26;79.35
35848;BME280;22332;51.954;20.118;2023-01-26T08:35:51;100736.75;;;3.29;79.43
35848;BME280;22332;51.954;20.118;2023-01-26T08:38:56;100732.61;;;3.34;79.34
35848;BME280;22332;51.954;20.118;2023-01-26T08:42:02;100730.14;;;3.37;79.18
35848;BME280;22332;51.954;20.118;2023-01-26T08:45:09;100733.79;;;3.40;79.34
35848;BME280;22332;51.954;20.118;2023-01-26T08:48:15;100738.01;;;3.44;79.04
35848;BME280;22332;51.954;20.118;2023-01-26T08:51:21;100738.60;;;3.42;78.84
35848;BME280;22332;51.954;20.118;2023-01-26T08:54:27;100744.75;;;3.40;78.98
35848;BME280;22332;51.954;20.118;2023-01-26T08:57:32;100750.34;;;3.38;78.85
35848;BME280;22332;51.954;20.118;2023-01-26T09:00:38;100747.14;;;3.38;79.13
35848;BME280;22332;51.954;20.118;2023-01-26T09:03:44;100742.13;;;3.39;78.92
35848;BME280;22332;51.954;20.118;2023-01-26T09:06:50;100743.60;;;3.41;78.86
35848;BME280;22332;51.954;20.118;2023-01-26T09:09:55;100745.45;;;3.42;78.68
35848;BME280;22332;51.954;20.118;2023-01-26T09:13:01;100752.78;;;3.43;78.64
35848;BME280;22332;51.954;20.118;2023-01-26T09:16:14;100750.74;;;3.48;78.63
35848;BME280;22332;51.954;20.118;2023-01-26T09:19:20;100754.05;;;3.54;78.52
35848;BME280;22332;51.954;20.118;2023-01-26T09:22:26;100762.73;;;3.62;78.55
35848;BME280;22332;51.954;20.118;2023-01-26T09:25:34;100758.29;;;3.65;78.42
35848;BME280;22332;51.954;20.118;2023-01-26T09:28:40;100756.97;;;3.69;78.30
35848;BME280;22332;51.954;20.118;2023-01-26T09:31:45;100753.92;;;3.67;78.30
35848;BME280;22332;51.954;20.118;2023-01-26T09:34:51;100752.50;;;3.65;78.17
35848;BME280;22332;51.954;20.118;2023-01-26T09:37:56;100749.27;;;3.63;78.18
35848;BME280;22332;51.954;20.118;2023-01-26T09:41:06;100743.02;;;3.65;78.15
35848;BME280;22332;51.954;20.118;2023-01-26T09:44:19;100738.15;;;3.64;77.94
35848;BME280;22332;51.954;20.118;2023-01-26T09:47:27;100732.97;;;3.62;77.95
35848;BME280;22332;51.954;20.118;2023-01-26T09:50:42;100731.73;;;3.65;77.93
35848;BME280;22332;51.954;20.118;2023-01-26T09:53:54;100730.05;;;3.64;77.82
35848;BME280;22332;51.954;20.118;2023-01-26T09:57:08;100721.48;;;3.66;77.94
35848;BME280;22332;51.954;20.118;2023-01-26T10:00:21;100714.89;;;3.70;77.90
35848;BME280;22332;51.954;20.118;2023-01-26T10:03:31;100714.92;;;3.72;77.76
35848;BME280;22332;51.954;20.118;2023-01-26T10:06:38;100719.84;;;3.69;77.58
35848;BME280;22332;51.954;20.118;2023-01-26T10:09:50;100714.66;;;3.68;77.67
35848;BME280;22332;51.954;20.118;2023-01-26T10:12:57;100707.83;;;3.70;77.65
35848;BME280;22332;51.954;20.118;2023-01-26T10:16:08;100706.81;;;3.72;77.55
35848;BME280;22332;51.954;20.118;2023-01-26T10:19:18;100701.70;;;3.73;77.48
35848;BME280;22332;51.954;20.118;2023-01-26T10:22:32;100703.61;;;3.78;77.21
35848;BME280;22332;51.954;20.118;2023-01-26T10:25:41;100701.72;;;3.83;77.01
35848;BME280;22332;51.954;20.118;2023-01-26T10:28:50;100698.13;;;3.87;77.18
35848;BME280;22332;51.954;20.118;2023-01-26T10:31:57;100691.23;;;3.93;77.01
35848;BME280;22332;51.954;20.118;2023-01-26T10:35:03;100691.05;;;3.96;76.74
35848;BME280;22332;51.954;20.118;2023-01-26T10:38:28;100689.73;;;3.95;76.63
35848;BME280;22332;51.954;20.118;2023-01-26T10:41:56;100687.50;;;3.93;76.50
35848;BME280;22332;51.954;20.118;2023-01-26T10:45:04;100682.19;;;3.91;76.52
35848;BME280;22332;51.954;20.118;2023-01-26T10:48:18;100677.50;;;3.90;76.36
35848;BME280;22332;51.954;20.118;2023-01-26T10:51:27;100678.09;;;3.84;76.14
35848;BME280;22332;51.954;20.118;2023-01-26T10:54:33;100673.17;;;3.79;76.39
35848;BME280;22332;51.954;20.118;2023-01-26T10:57:41;100669.50;;;3.75;76.02
35848;BME280;22332;51.954;20.118;2023-01-26T11:00:55;100666.44;;;3.71;75.84
35848;BME280;22332;51.954;20.118;2023-01-26T11:04:05;100657.40;;;3.66;75.87
35848;BME280;22332;51.954;20.118;2023-01-26T11:07:26;100647.27;;;3.68;76.35
35848;BME280;22332;51.954;20.118;2023-01-26T11:10:33;100641.08;;;3.68;76.03
35848;BME280;22332;51.954;20.118;2023-01-26T11:13:40;100637.46;;;3.67;76.18
35848;BME280;22332;51.954;20.118;2023-01-26T11:16:49;100633.41;;;3.68;75.84
35848;BME280;22332;51.954;20.118;2023-01-26T11:20:06;100633.65;;;3.66;75.81
35848;BME280;22332;51.954;20.118;2023-01-26T11:23:21;100632.96;;;3.63;75.59
35848;BME280;22332;51.954;20.118;2023-01-26T11:26:45;100628.36;;;3.59;75.76
35848;BME280;22332;51.954;20.118;2023-01-26T11:30:08;100628.11;;;3.57;75.70
35848;BME280;22332;51.954;20.118;2023-01-26T11:33:28;100625.88;;;3.53;75.50
35848;BME280;22332;51.954;20.118;2023-01-26T11:36:40;100620.16;;;3.55;75.61
35848;BME280;22332;51.954;20.118;2023-01-26T11:39:57;100613.96;;;3.58;75.80
35848;BME280;22332;51.954;20.118;2023-01-26T11:43:23;100608.27;;;3.65;75.72
35848;BME280;22332;51.954;20.118;2023-01-26T11:46:46;100607.58;;;3.72;75.70
35848;BME280;22332;51.954;20.118;2023-01-26T11:50:05;100603.91;;;3.74;75.34
35848;BME280;22332;51.954;20.118;2023-01-26T11:53:32;100602.79;;;3.81;75.49
35848;BME280;22332;51.954;20.118;2023-01-26T11:56:47;100594.55;;;3.83;75.24
35848;BME280;22332;51.954;20.118;2023-01-26T11:59:53;100598.50;;;3.85;75.14
35848;BME280;22332;51.954;20.118;2023-01-26T12:03:04;100595.48;;;3.90;75.01
35848;BME280;22332;51.954;20.118;2023-01-26T12:06:17;100591.24;;;3.90;75.12
35848;BME280;22332;51.954;20.118;2023-01-26T12:09:26;100592.60;;;3.94;75.03
35848;BME280;22332;51.954;20.118;2023-01-26T12:12:42;100588.23;;;3.97;74.93
35848;BME280;22332;51.954;20.118;2023-01-26T12:15:54;100580.52;;;3.99;74.68
35848;BME280;22332;51.954;20.118;2023-01-26T12:19:04;100578.71;;;3.99;74.85
35848;BME280;22332;51.954;20.118;2023-01-26T12:22:17;100576.20;;;4.02;74.72
35848;BME280;22332;51.954;20.118;2023-01-26T12:25:29;100581.34;;;4.02;74.59
35848;BME280;22332;51.954;20.118;2023-01-26T12:28:40;100583.37;;;4.03;74.84
35848;BME280;22332;51.954;20.118;2023-01-26T12:31:54;100587.45;;;4.05;74.55
35848;BME280;22332;51.954;20.118;2023-01-26T12:35:02;100579.27;;;4.04;74.15
35848;BME280;22332;51.954;20.118;2023-01-26T12:38:11;100582.67;;;3.98;73.97
35848;BME280;22332;51.954;20.118;2023-01-26T12:41:21;100586.48;;;3.91;74.01
35848;BME280;22332;51.954;20.118;2023-01-26T12:44:37;100588.29;;;3.82;73.94
35848;BME280;22332;51.954;20.118;2023-01-26T12:47:47;100590.13;;;3.78;74.28
35848;BME280;22332;51.954;20.118;2023-01-26T12:50:59;100585.86;;;3.79;74.32
35848;BME280;22332;51.954;20.118;2023-01-26T12:54:16;100582.21;;;3.78;74.19
35848;BME280;22332;51.954;20.118;2023-01-26T12:57:28;100581.40;;;3.74;74.28
35848;BME280;22332;51.954;20.118;2023-01-26T13:00:36;100576.09;;;3.70;73.99
35848;BME280;22332;51.954;20.118;2023-01-26T13:03:44;100577.24;;;3.66;74.00
35848;BME280;22332;51.954;20.118;2023-01-26T13:07:01;100576.14;;;3.61;74.20
35848;BME280;22332;51.954;20.118;2023-01-26T13:10:19;100573.87;;;3.58;74.24
35848;BME280;22332;51.954;20.118;2023-01-26T13:13:30;100572.55;;;3.57;74.03
35848;BME280;22332;51.954;20.118;2023-01-26T13:16:36;100574.98;;;3.57;74.13
35848;BME280;22332;51.954;20.118;2023-01-26T13:19:53;100572.78;;;3.58;74.08
35848;BME280;22332;51.954;20.118;2023-01-26T13:23:08;100574.69;;;3.59;73.95
35848;BME280;22332;51.954;20.118;2023-01-26T13:26:50;100572.61;;;3.59;74.14
35848;BME280;22332;51.954;20.118;2023-01-26T13:29:57;100574.40;;;3.58;73.92
35848;BME280;22332;51.954;20.118;2023-01-26T13:33:09;100568.98;;;3.54;73.82
35848;BME280;22332;51.954;20.118;2023-01-26T13:36:17;100565.89;;;3.53;73.88
35848;BME280;22332;51.954;20.118;2023-01-26T13:39:29;100560.05;;;3.54;73.96
35848;BME280;22332;51.954;20.118;2023-01-26T13:42:42;100562.33;;;3.54;73.90
35848;BME280;22332;51.954;20.118;2023-01-26T13:45:58;100561.10;;;3.54;73.55
35848;BME280;22332;51.954;20.118;2023-01-26T13:49:20;100559.77;;;3.52;73.80
35848;BME280;22332;51.954;20.118;2023-01-26T13:52:28;100557.36;;;3.52;73.57
35848;BME280;22332;51.954;20.118;2023-01-26T13:55:34;100561.08;;;3.49;73.67
35848;BME280;22332;51.954;20.118;2023-01-26T13:58:45;100562.14;;;3.49;73.67
35848;BME280;22332;51.954;20.118;2023-01-26T14:01:52;100558.96;;;3.52;73.74
35848;BME280;22332;51.954;20.118;2023-01-26T14:04:58;100557.08;;;3.51;73.74
35848;BME280;22332;51.954;20.118;2023-01-26T14:08:04;100552.49;;;3.48;73.72
35848;BME280;22332;51.954;20.118;2023-01-26T14:11:17;100558.69;;;3.48;73.49
35848;BME280;22332;51.954;20.118;2023-01-26T14:14:26;100558.13;;;3.45;73.55
35848;BME280;22332;51.954;20.118;2023-01-26T14:17:33;100554.96;;;3.43;73.51
35848;BME280;22332;51.954;20.118;2023-01-26T14:20:40;100553.61;;;3.42;73.48
35848;BME280;22332;51.954;20.118;2023-01-26T14:23:54;100550.92;;;3.38;73.49
35848;BME280;22332;51.954;20.118;2023-01-26T14:27:00;100548.95;;;3.35;73.40
35848;BME280;22332;51.954;20.118;2023-01-26T14:33:41;100558.27;;;3.38;73.36
35848;BME280;22332;51.954;20.118;2023-01-26T14:36:47;100558.53;;;3.42;73.44
35848;BME280;22332;51.954;20.118;2023-01-26T14:40:13;100555.62;;;3.49;73.38
35848;BME280;22332;51.954;20.118;2023-01-26T14:43:23;100546.42;;;3.55;73.32
35848;BME280;22332;51.954;20.118;2023-01-26T14:46:34;100538.45;;;3.59;73.35
35848;BME280;22332;51.954;20.118;2023-01-26T14:49:45;100536.35;;;3.59;73.11
35848;BME280;22332;51.954;20.118;2023-01-26T14:52:52;100534.88;;;3.57;73.13
35848;BME280;22332;51.954;20.118;2023-01-26T14:55:59;100532.50;;;3.56;73.18
35848;BME280;22332;51.954;20.118;2023-01-26T14:59:05;100530.92;;;3.53;73.07
35848;BME280;22332;51.954;20.118;2023-01-26T15:02:17;100527.11;;;3.49;73.09
35848;BME280;22332;51.954;20.118;2023-01-26T15:05:36;100525.04;;;3.46;73.16
35848;BME280;22332;51.954;20.118;2023-01-26T15:08:55;100521.70;;;3.40;73.01
35848;BME280;22332;51.954;20.118;2023-01-26T15:12:01;100523.55;;;3.36;73.00
35848;BME280;22332;51.954;20.118;2023-01-26T15:15:20;100516.88;;;3.33;73.09
35848;BME280;22332;51.954;20.118;2023-01-26T15:18:31;100517.20;;;3.31;73.18
35848;BME280;22332;51.954;20.118;2023-01-26T15:21:37;100520.74;;;3.28;73.18
35848;BME280;22332;51.954;20.118;2023-01-26T15:24:57;100524.10;;;3.25;73.00
35848;BME280;22332;51.954;20.118;2023-01-26T15:28:04;100524.36;;;3.21;73.03
35848;BME280;22332;51.954;20.118;2023-01-26T15:31:19;100520.06;;;3.14;73.00
35848;BME280;22332;51.954;20.118;2023-01-26T15:34:31;100520.23;;;3.11;73.15
35848;BME280;22332;51.954;20.118;2023-01-26T15:37:37;100517.49;;;3.11;73.16
35848;BME280;22332;51.954;20.118;2023-01-26T15:40:43;100520.08;;;3.09;73.22
35848;BME280;22332;51.954;20.118;2023-01-26T15:43:48;100522.51;;;3.06;72.88
35848;BME280;22332;51.954;20.118;2023-01-26T15:46:54;100523.45;;;3.03;73.13
35848;BME280;22332;51.954;20.118;2023-01-26T15:50:01;100530.39;;;3.01;72.98
35848;BME280;22332;51.954;20.118;2023-01-26T15:53:07;100533.95;;;3.00;73.12
35848;BME280;22332;51.954;20.118;2023-01-26T15:56:15;100538.71;;;3.00;73.27
35848;BME280;22332;51.954;20.118;2023-01-26T15:59:21;100539.71;;;2.98;73.01
35848;BME280;22332;51.954;20.118;2023-01-26T16:02:28;100538.55;;;2.97;72.92
35848;BME280;22332;51.954;20.118;2023-01-26T16:05:34;100539.20;;;2.95;73.16
35848;BME280;22332;51.954;20.118;2023-01-26T16:08:40;100545.40;;;2.95;73.22
35848;BME280;22332;51.954;20.118;2023-01-26T16:11:48;100547.13;;;2.95;73.26
35848;BME280;22332;51.954;20.118;2023-01-26T16:14:55;100551.89;;;2.97;73.18
35848;BME280;22332;51.954;20.118;2023-01-26T16:18:01;100549.60;;;3.03;73.20
35848;BME280;22332;51.954;20.118;2023-01-26T16:21:16;100553.48;;;3.11;73.37
35848;BME280;22332;51.954;20.118;2023-01-26T16:24:22;100557.96;;;3.18;73.33
35848;BME280;22332;51.954;20.118;2023-01-26T16:27:27;100560.64;;;3.23;73.38
35848;BME280;22332;51.954;20.118;2023-01-26T16:30:33;100555.75;;;3.25;73.31
35848;BME280;22332;51.954;20.118;2023-01-26T16:33:38;100560.60;;;3.26;73.34
35848;BME280;22332;51.954;20.118;2023-01-26T16:36:44;100562.91;;;3.26;73.51